Time;durP1;ratioP1;P1;durP2;ratioP2;P2;SDS_P1;SDS_P2;PMS_P1;PMS_P2;Temp;Humidity;BMP_temperature;BMP_pressure;BME280_temperature;BME280_humidity;BME280_pressure;Samples;Min_cycle;Max_cycle;Signal;HPM_P1;HPM_P2
2023/03/13 00:00:50;;;;;;;8.25;1.45;;;;;;;;;;5045174;28;21432;-58
2023/03/13 00:03:18;;;;;;;6.23;1.23;;;;;;;;;;5029449;28;20782;-58
2023/03/13 00:05:45;;;;;;;6.72;1.15;;;;;;;;;;5051655;28;20958;-59
2023/03/13 00:08:14;;;;;;;7.75;1.85;;;;;;;;;;5048312;28;20051;-59
2023/03/13 00:10:42;;;;;;;6.70;1.15;;;;;;;;;;5019337;28;20040;-59
2023/03/13 00:13:09;;;;;;;12.18;1.83;;;;;;;;;;5055007;28;20063;-58
2023/03/13 00:15:42;;;;;;;10.53;1.63;;;;;;;;;;5047862;28;20050;-59
2023/03/13 00:18:09;;;;;;;13.55;2.60;;;;;;;;;;5034611;28;20507;-59
2023/03/13 00:20:37;;;;;;;8.60;2.10;;;;;;;;;;5061428;28;20400;-59
2023/03/13 00:23:05;;;;;;;11.90;2.00;;;;;;;;;;5020794;28;20063;-58
2023/03/13 00:25:33;;;;;;;12.35;2.45;;;;;;;;;;5052079;28;20056;-59
2023/03/13 00:28:00;;;;;;;11.50;1.70;;;;;;;;;;4690905;28;10000828;-58
2023/03/13 00:30:28;;;;;;;13.45;2.45;;;;;;;;;;5040034;28;20837;-58
2023/03/13 00:32:57;;;;;;;13.43;1.50;;;;;;;;;;5044979;28;20132;-57
2023/03/13 00:35:24;;;;;;;19.03;2.60;;;;;;;;;;5039244;28;20151;-59
2023/03/13 00:37:52;;;;;;;8.75;1.73;;;;;;;;;;5032253;28;20180;-59
2023/03/13 00:40:20;;;;;;;11.45;2.50;;;;;;;;;;5041118;28;20036;-58
2023/03/13 00:42:47;;;;;;;8.82;1.48;;;;;;;;;;5027596;28;20052;-58
2023/03/13 00:45:15;;;;;;;12.63;1.63;;;;;;;;;;5038161;28;20116;-58
2023/03/13 00:47:43;;;;;;;5.87;0.80;;;;;;;;;;5030912;28;20477;-59
2023/03/13 00:50:19;;;;;;;5.63;1.08;;;;;;;;;;5045495;28;20040;-58
2023/03/13 00:52:46;;;;;;;9.88;1.40;;;;;;;;;;5044297;28;20538;-58
2023/03/13 00:55:14;;;;;;;5.72;1.15;;;;;;;;;;5034103;28;20135;-58
2023/03/13 00:57:41;;;;;;;6.32;1.15;;;;;;;;;;5056336;28;20117;-58
2023/03/13 01:00:10;;;;;;;5.77;1.13;;;;;;;;;;5033469;28;20127;-59
2023/03/13 01:02:40;;;;;;;4.85;0.57;;;;;;;;;;5045411;28;20225;-58
2023/03/13 01:05:09;;;;;;;8.82;1.00;;;;;;;;;;5025236;28;20036;-59
2023/03/13 01:07:38;;;;;;;6.43;0.80;;;;;;;;;;5065536;28;20036;-59
2023/03/13 01:10:07;;;;;;;6.25;1.15;;;;;;;;;;5030073;28;20032;-59
2023/03/13 01:12:34;;;;;;;4.57;0.90;;;;;;;;;;5047968;28;20039;-59
2023/03/13 01:15:06;;;;;;;7.30;1.25;;;;;;;;;;5040094;28;20093;-59
2023/03/13 01:17:35;;;;;;;4.22;1.20;;;;;;;;;;5040853;28;20164;-59
2023/03/13 01:20:04;;;;;;;7.28;0.90;;;;;;;;;;5052766;28;20051;-58
2023/03/13 01:22:31;;;;;;;4.78;0.50;;;;;;;;;;5036097;28;20086;-58
2023/03/13 01:25:00;;;;;;;5.80;0.73;;;;;;;;;;5051361;28;20109;-59
2023/03/13 01:27:29;;;;;;;3.55;0.73;;;;;;;;;;5039450;28;20727;-58
2023/03/13 01:29:56;;;;;;;4.05;0.60;;;;;;;;;;5050449;28;20112;-58
2023/03/13 01:32:24;;;;;;;5.47;0.90;;;;;;;;;;5028056;28;20047;-58
2023/03/13 01:34:51;;;;;;;4.13;0.90;;;;;;;;;;5036727;28;20051;-58
2023/03/13 01:37:19;;;;;;;3.17;0.43;;;;;;;;;;5035996;28;20138;-58
2023/03/13 01:39:46;;;;;;;6.45;0.88;;;;;;;;;;5052940;28;20067;-59
2023/03/13 01:42:15;;;;;;;4.65;0.63;;;;;;;;;;5031644;28;20108;-59
2023/03/13 01:44:54;;;;;;;3.55;0.50;;;;;;;;;;5055052;28;20063;-59
2023/03/13 01:47:23;;;;;;;3.13;0.40;;;;;;;;;;5030067;28;20390;-58
2023/03/13 01:49:52;;;;;;;4.03;0.50;;;;;;;;;;5033287;28;20044;-59
2023/03/13 01:52:21;;;;;;;2.72;0.40;;;;;;;;;;5049261;28;20036;-58
2023/03/13 01:54:50;;;;;;;5.40;0.55;;;;;;;;;;5045961;28;20124;-59
2023/03/13 01:57:24;;;;;;;4.85;0.68;;;;;;;;;;5054096;28;20397;-59
2023/03/13 01:59:53;;;;;;;3.10;0.43;;;;;;;;;;5029883;28;20042;-59
2023/03/13 02:02:21;;;;;;;4.17;0.70;;;;;;;;;;5030142;28;20609;-59
2023/03/13 02:04:51;;;;;;;2.42;0.40;;;;;;;;;;5034984;28;20123;-58
2023/03/13 02:07:22;;;;;;;3.95;0.45;;;;;;;;;;5059067;28;20051;-58
2023/03/13 02:09:51;;;;;;;3.63;0.70;;;;;;;;;;5028459;28;20424;-59
2023/03/13 02:12:23;;;;;;;5.82;0.80;;;;;;;;;;5033233;28;20040;-58
2023/03/13 02:14:52;;;;;;;5.07;0.50;;;;;;;;;;5041682;28;24171;-59
2023/03/13 02:17:20;;;;;;;4.38;0.77;;;;;;;;;;5054620;28;20102;-58
2023/03/13 02:19:52;;;;;;;3.83;0.75;;;;;;;;;;5054146;28;20032;-58
2023/03/13 02:22:23;;;;;;;4.93;0.60;;;;;;;;;;5026469;28;20044;-59
2023/03/13 02:24:53;;;;;;;2.85;0.50;;;;;;;;;;5053559;28;20119;-59
2023/03/13 02:27:22;;;;;;;3.23;0.60;;;;;;;;;;5031866;28;20135;-58
2023/03/13 02:29:51;;;;;;;4.85;0.68;;;;;;;;;;5040618;28;20036;-58
2023/03/13 02:32:18;;;;;;;4.05;1.27;;;;;;;;;;5029986;28;20055;-57
2023/03/13 02:34:48;;;;;;;3.67;0.47;;;;;;;;;;5041174;28;20035;-58
2023/03/13 02:37:16;;;;;;;4.57;0.88;;;;;;;;;;5031947;28;20111;-58
2023/03/13 02:39:46;;;;;;;3.20;0.60;;;;;;;;;;5036252;28;20040;-59
2023/03/13 02:42:14;;;;;;;4.28;0.60;;;;;;;;;;5031825;28;20136;-59
2023/03/13 02:44:45;;;;;;;4.82;0.73;;;;;;;;;;5056740;28;20046;-58
2023/03/13 02:47:13;;;;;;;6.03;1.50;;;;;;;;;;5033717;28;20130;-59
2023/03/13 02:49:40;;;;;;;6.35;0.55;;;;;;;;;;5036710;28;20105;-59
2023/03/13 02:52:12;;;;;;;3.37;0.47;;;;;;;;;;5053103;28;20390;-59
2023/03/13 02:54:40;;;;;;;3.70;0.70;;;;;;;;;;4999659;28;20222;-58
2023/03/13 02:57:08;;;;;;;6.45;1.15;;;;;;;;;;5048030;28;20145;-59
2023/03/13 02:59:35;;;;;;;3.33;0.80;;;;;;;;;;5044472;28;20158;-59
2023/03/13 03:02:04;;;;;;;3.85;0.63;;;;;;;;;;5029159;28;20127;-58
2023/03/13 03:04:32;;;;;;;3.70;0.57;;;;;;;;;;5055202;28;20032;-59
2023/03/13 03:07:00;;;;;;;2.78;0.38;;;;;;;;;;5060317;28;20054;-59
2023/03/13 03:09:27;;;;;;;4.07;0.68;;;;;;;;;;5043046;28;20127;-58
2023/03/13 03:11:55;;;;;;;4.55;0.80;;;;;;;;;;5042852;28;20520;-58
2023/03/13 03:14:23;;;;;;;2.65;0.50;;;;;;;;;;5054028;28;20093;-58
2023/03/13 03:16:50;;;;;;;3.17;0.43;;;;;;;;;;5036329;28;20131;-59
2023/03/13 03:19:19;;;;;;;5.78;0.50;;;;;;;;;;5057976;28;20040;-57
2023/03/13 03:21:48;;;;;;;4.32;0.50;;;;;;;;;;5025761;28;20052;-59
2023/03/13 03:24:15;;;;;;;3.10;0.55;;;;;;;;;;5051871;28;20120;-59
2023/03/13 03:26:43;;;;;;;4.03;0.85;;;;;;;;;;5042774;28;20772;-58
2023/03/13 03:29:11;;;;;;;4.83;0.50;;;;;;;;;;5034661;28;20127;-59
2023/03/13 03:31:38;;;;;;;4.15;0.68;;;;;;;;;;5043285;28;20064;-58
2023/03/13 03:34:07;;;;;;;2.95;0.40;;;;;;;;;;5043205;28;21392;-59
2023/03/13 03:36:36;;;;;;;2.08;0.30;;;;;;;;;;5056471;28;20109;-59
2023/03/13 03:39:04;;;;;;;5.10;0.93;;;;;;;;;;5034593;28;20382;-58
2023/03/13 03:41:31;;;;;;;2.60;0.50;;;;;;;;;;5051252;28;20112;-59
2023/03/13 03:43:59;;;;;;;4.53;1.13;;;;;;;;;;5026723;28;20036;-59
2023/03/13 03:46:26;;;;;;;4.20;0.77;;;;;;;;;;5057611;28;20082;-59
2023/03/13 03:48:54;;;;;;;3.85;0.57;;;;;;;;;;5062225;28;20329;-58
2023/03/13 03:51:23;;;;;;;4.18;1.00;;;;;;;;;;5040678;28;20561;-60
2023/03/13 03:53:53;;;;;;;5.27;0.90;;;;;;;;;;5043224;28;20076;-59
2023/03/13 03:56:21;;;;;;;4.07;0.93;;;;;;;;;;5062014;28;20151;-59
2023/03/13 03:58:51;;;;;;;7.43;0.73;;;;;;;;;;5051195;28;20075;-59
2023/03/13 04:01:19;;;;;;;7.65;1.30;;;;;;;;;;5042089;28;20044;-59
2023/03/13 04:03:47;;;;;;;3.53;0.50;;;;;;;;;;5049772;28;20029;-59
2023/03/13 04:06:15;;;;;;;6.23;0.70;;;;;;;;;;5001054;28;20043;-59
2023/03/13 04:08:42;;;;;;;8.45;1.25;;;;;;;;;;5051853;28;20260;-59
2023/03/13 04:11:11;;;;;;;11.98;1.20;;;;;;;;;;5039622;28;20032;-59
2023/03/13 04:13:39;;;;;;;6.00;0.75;;;;;;;;;;5046578;28;20067;-58
2023/03/13 04:16:07;;;;;;;9.77;1.00;;;;;;;;;;5029301;28;20054;-59
2023/03/13 04:18:35;;;;;;;6.73;1.23;;;;;;;;;;5033341;28;20060;-59
2023/03/13 04:21:03;;;;;;;6.45;1.05;;;;;;;;;;5040097;28;20519;-59
2023/03/13 04:23:31;;;;;;;4.95;1.05;;;;;;;;;;5030933;28;20040;-59
2023/03/13 04:25:59;;;;;;;4.80;0.65;;;;;;;;;;5062339;28;20422;-59
2023/03/13 04:28:28;;;;;;;5.55;1.08;;;;;;;;;;5034689;28;20147;-59
2023/03/13 04:30:57;;;;;;;5.00;0.87;;;;;;;;;;5034590;28;20576;-58
2023/03/13 04:33:25;;;;;;;10.55;1.20;;;;;;;;;;5049244;28;20044;-58
2023/03/13 04:35:53;;;;;;;7.38;1.13;;;;;;;;;;5025530;28;20043;-59
2023/03/13 04:38:20;;;;;;;6.45;0.98;;;;;;;;;;5053246;28;20036;-59
2023/03/13 04:40:48;;;;;;;6.63;1.00;;;;;;;;;;5005864;28;20055;-58
2023/03/13 04:43:16;;;;;;;6.23;1.20;;;;;;;;;;5034677;28;20067;-59
2023/03/13 04:45:45;;;;;;;4.43;0.82;;;;;;;;;;5052837;28;20673;-59
2023/03/13 04:48:13;;;;;;;6.15;0.70;;;;;;;;;;5046828;28;20501;-59
2023/03/13 04:50:40;;;;;;;3.92;0.35;;;;;;;;;;5033730;28;20147;-59
2023/03/13 04:53:08;;;;;;;5.65;0.90;;;;;;;;;;4996970;28;20119;-59
2023/03/13 04:55:36;;;;;;;9.73;1.27;;;;;;;;;;5046664;28;20490;-59
2023/03/13 04:58:03;;;;;;;6.88;1.05;;;;;;;;;;5041928;28;20058;-59
2023/03/13 05:00:32;;;;;;;6.53;1.63;;;;;;;;;;5047522;28;20032;-59
2023/03/13 05:03:01;;;;;;;5.75;1.65;;;;;;;;;;5039678;28;20111;-59
2023/03/13 05:05:28;;;;;;;8.35;0.88;;;;;;;;;;5048880;28;20894;-59
2023/03/13 05:07:56;;;;;;;5.60;0.83;;;;;;;;;;5045708;28;20044;-59
2023/03/13 05:10:24;;;;;;;8.15;0.82;;;;;;;;;;5060154;28;20044;-59
2023/03/13 05:12:52;;;;;;;6.43;1.17;;;;;;;;;;5016143;28;20093;-59
2023/03/13 05:15:20;;;;;;;7.78;1.13;;;;;;;;;;5048077;28;20111;-58
2023/03/13 05:17:48;;;;;;;7.28;1.40;;;;;;;;;;5034110;28;20739;-58
2023/03/13 05:20:17;;;;;;;9.40;1.00;;;;;;;;;;5050130;28;20119;-59
2023/03/13 05:22:48;;;;;;;15.70;2.17;;;;;;;;;;5044218;28;20123;-58
2023/03/13 05:25:16;;;;;;;9.23;1.48;;;;;;;;;;5051344;28;20044;-59
2023/03/13 05:27:45;;;;;;;10.57;1.35;;;;;;;;;;5031029;28;20122;-59
2023/03/13 05:30:13;;;;;;;11.25;1.45;;;;;;;;;;5025843;28;20040;-59
2023/03/13 05:32:40;;;;;;;11.07;1.60;;;;;;;;;;5050507;28;20123;-59
2023/03/13 05:35:08;;;;;;;11.75;1.65;;;;;;;;;;5038446;28;20032;-59
2023/03/13 05:37:37;;;;;;;11.52;2.17;;;;;;;;;;5054755;28;20059;-59
2023/03/13 05:40:08;;;;;;;6.18;1.02;;;;;;;;;;5042043;28;20041;-59
2023/03/13 05:42:37;;;;;;;9.73;1.23;;;;;;;;;;5054886;28;20036;-59
2023/03/13 05:45:04;;;;;;;11.60;1.43;;;;;;;;;;5049162;28;20125;-59
2023/03/13 05:47:32;;;;;;;16.40;2.28;;;;;;;;;;5045789;28;20059;-59
2023/03/13 05:50:00;;;;;;;24.40;3.55;;;;;;;;;;5042296;28;20127;-59
2023/03/13 05:52:28;;;;;;;7.88;1.90;;;;;;;;;;5047873;28;20078;-58
2023/03/13 05:54:57;;;;;;;17.38;2.58;;;;;;;;;;5000039;28;1144403;-59
2023/03/13 05:57:25;;;;;;;15.05;2.30;;;;;;;;;;5033324;28;20133;-59
2023/03/13 05:59:52;;;;;;;15.27;2.03;;;;;;;;;;5053394;28;20051;-58
2023/03/13 06:02:20;;;;;;;16.48;2.42;;;;;;;;;;5044569;28;20044;-58
2023/03/13 06:04:48;;;;;;;13.20;2.25;;;;;;;;;;5049614;28;20102;-58
2023/03/13 06:07:16;;;;;;;14.93;2.35;;;;;;;;;;5034977;28;20128;-59
2023/03/13 06:09:43;;;;;;;11.93;2.08;;;;;;;;;;5059195;28;20399;-59
2023/03/13 06:12:12;;;;;;;8.63;1.90;;;;;;;;;;5045931;28;20041;-59
2023/03/13 06:14:40;;;;;;;12.35;2.65;;;;;;;;;;5041143;28;20515;-59
2023/03/13 06:17:07;;;;;;;13.88;1.95;;;;;;;;;;5051156;28;20123;-59
2023/03/13 06:19:35;;;;;;;15.27;2.15;;;;;;;;;;5040837;28;20064;-59
2023/03/13 06:22:03;;;;;;;10.20;1.67;;;;;;;;;;5056380;28;20119;-58
2023/03/13 06:24:30;;;;;;;15.73;2.30;;;;;;;;;;5042931;28;20280;-59
2023/03/13 06:26:58;;;;;;;12.40;1.30;;;;;;;;;;5047491;28;20086;-55
2023/03/13 06:29:27;;;;;;;10.35;1.63;;;;;;;;;;5045927;28;20122;-59
2023/03/13 06:31:55;;;;;;;16.77;2.10;;;;;;;;;;5051471;28;20102;-59
2023/03/13 06:34:22;;;;;;;13.30;2.92;;;;;;;;;;5036442;28;20074;-58
2023/03/13 06:36:51;;;;;;;14.87;2.00;;;;;;;;;;5039548;28;20072;-58
2023/03/13 06:39:18;;;;;;;10.07;1.83;;;;;;;;;;5050303;28;20114;-58
2023/03/13 06:41:46;;;;;;;14.32;2.30;;;;;;;;;;5038523;28;20573;-58
2023/03/13 06:44:13;;;;;;;10.90;1.70;;;;;;;;;;5061951;28;20127;-58
2023/03/13 06:46:42;;;;;;;18.30;2.45;;;;;;;;;;5052928;28;20045;-58
2023/03/13 06:49:11;;;;;;;16.73;2.43;;;;;;;;;;5041428;28;25183;-59
2023/03/13 06:51:39;;;;;;;14.63;2.05;;;;;;;;;;5051319;28;20032;-58
2023/03/13 06:54:06;;;;;;;14.73;2.80;;;;;;;;;;5042603;28;20052;-59
2023/03/13 06:56:34;;;;;;;20.90;3.17;;;;;;;;;;5035640;28;20082;-58
2023/03/13 06:59:02;;;;;;;15.95;3.35;;;;;;;;;;5054867;28;20586;-58
2023/03/13 07:01:29;;;;;;;18.37;2.50;;;;;;;;;;5048315;28;20292;-58
2023/03/13 07:03:59;;;;;;;13.23;1.48;;;;;;;;;;5048047;28;20035;-57
2023/03/13 07:06:26;;;;;;;13.98;1.90;;;;;;;;;;5038501;28;20457;-59
2023/03/13 07:08:54;;;;;;;13.13;1.88;;;;;;;;;;5056027;28;20497;-58
2023/03/13 07:11:22;;;;;;;20.63;3.17;;;;;;;;;;5044203;28;20119;-58
2023/03/13 07:13:49;;;;;;;19.07;2.50;;;;;;;;;;5040218;28;23316;-58
2023/03/13 07:16:17;;;;;;;12.15;1.80;;;;;;;;;;5017924;28;20036;-58
2023/03/13 07:18:45;;;;;;;17.10;2.30;;;;;;;;;;5055918;28;20051;-59
2023/03/13 07:21:14;;;;;;;16.70;1.70;;;;;;;;;;5043745;28;20064;-58
2023/03/13 07:23:41;;;;;;;10.10;1.77;;;;;;;;;;5039070;28;20094;-58
2023/03/13 07:26:10;;;;;;;18.97;2.40;;;;;;;;;;5044206;28;20071;-59
2023/03/13 07:28:38;;;;;;;16.13;2.42;;;;;;;;;;5049963;28;20040;-58
2023/03/13 07:31:07;;;;;;;21.13;2.40;;;;;;;;;;5040226;28;20052;-58
2023/03/13 07:33:35;;;;;;;18.10;3.03;;;;;;;;;;5030927;28;20446;-58
2023/03/13 07:36:03;;;;;;;15.43;2.47;;;;;;;;;;5054079;28;20059;-59
2023/03/13 07:38:32;;;;;;;15.23;2.43;;;;;;;;;;5024635;28;20650;-58
2023/03/13 07:41:00;;;;;;;14.50;1.65;;;;;;;;;;5057169;28;20113;-59
2023/03/13 07:43:28;;;;;;;20.27;2.22;;;;;;;;;;5038366;28;20495;-58
2023/03/13 07:45:56;;;;;;;16.63;2.53;;;;;;;;;;5044936;28;20071;-58
2023/03/13 07:48:25;;;;;;;15.15;2.38;;;;;;;;;;5048291;28;20119;-57
2023/03/13 07:50:54;;;;;;;18.27;2.63;;;;;;;;;;5062230;28;20040;-58
2023/03/13 07:53:22;;;;;;;23.55;2.42;;;;;;;;;;5042379;28;20465;-58
2023/03/13 07:55:55;;;;;;;15.65;2.63;;;;;;;;;;5037425;28;20130;-58
2023/03/13 07:58:23;;;;;;;18.98;1.75;;;;;;;;;;5045239;28;20128;-58
2023/03/13 08:00:50;;;;;;;16.67;1.98;;;;;;;;;;5050155;28;20043;-58
2023/03/13 08:03:18;;;;;;;16.30;2.03;;;;;;;;;;5040524;28;20043;-59
2023/03/13 08:05:46;;;;;;;19.40;2.70;;;;;;;;;;5050096;28;20101;-58
2023/03/13 08:08:14;;;;;;;14.70;2.53;;;;;;;;;;5036059;28;20119;-58
2023/03/13 08:10:41;;;;;;;19.83;2.15;;;;;;;;;;5051767;28;20154;-59
2023/03/13 08:13:10;;;;;;;24.98;2.53;;;;;;;;;;5029191;28;20044;-58
2023/03/13 08:15:38;;;;;;;18.77;2.63;;;;;;;;;;5049979;28;20040;-59
2023/03/13 08:18:06;;;;;;;14.02;1.92;;;;;;;;;;5037383;28;20863;-59
2023/03/13 08:20:34;;;;;;;16.20;2.08;;;;;;;;;;5052111;28;20404;-59
2023/03/13 08:23:01;;;;;;;11.43;1.42;;;;;;;;;;5012689;28;20658;-58
2023/03/13 08:25:30;;;;;;;19.90;2.50;;;;;;;;;;5045002;28;20047;-58
2023/03/13 08:27:58;;;;;;;20.60;2.13;;;;;;;;;;5044306;28;20127;-57
2023/03/13 08:30:30;;;;;;;22.85;2.55;;;;;;;;;;5042349;28;20474;-58
2023/03/13 08:32:57;;;;;;;18.58;2.00;;;;;;;;;;5045919;28;20036;-59
2023/03/13 08:35:25;;;;;;;17.15;2.63;;;;;;;;;;5035092;28;20054;-59
2023/03/13 08:37:53;;;;;;;16.52;2.05;;;;;;;;;;5050003;28;20048;-59
2023/03/13 08:40:20;;;;;;;11.47;1.97;;;;;;;;;;5038024;28;20119;-59
2023/03/13 08:42:48;;;;;;;15.25;2.15;;;;;;;;;;5038122;28;20496;-59
2023/03/13 08:45:16;;;;;;;13.75;1.65;;;;;;;;;;5037023;28;20059;-59
2023/03/13 08:47:45;;;;;;;15.85;2.38;;;;;;;;;;5054544;28;20125;-59
2023/03/13 08:50:12;;;;;;;17.50;2.50;;;;;;;;;;5038564;28;20737;-58
2023/03/13 08:52:40;;;;;;;12.67;2.00;;;;;;;;;;5060647;28;20032;-58
2023/03/13 08:55:08;;;;;;;11.38;2.15;;;;;;;;;;5048309;28;20694;-58
2023/03/13 08:57:36;;;;;;;23.25;3.63;;;;;;;;;;5047687;28;20123;-60
2023/03/13 09:00:05;;;;;;;18.23;2.53;;;;;;;;;;4340135;28;10000727;-59
2023/03/13 09:02:33;;;;;;;19.63;3.63;;;;;;;;;;5048471;28;20044;-59
2023/03/13 09:05:02;;;;;;;18.58;2.45;;;;;;;;;;5038360;28;20044;-60
2023/03/13 09:07:30;;;;;;;17.77;2.05;;;;;;;;;;5025006;28;20032;-59
2023/03/13 09:09:59;;;;;;;17.23;2.63;;;;;;;;;;5041765;28;20518;-59
2023/03/13 09:12:27;;;;;;;13.23;1.85;;;;;;;;;;5028202;28;20052;-59
2023/03/13 09:14:58;;;;;;;12.23;2.03;;;;;;;;;;5043225;28;20081;-59
2023/03/13 09:17:26;;;;;;;19.27;2.33;;;;;;;;;;5052473;28;20567;-59
2023/03/13 09:19:54;;;;;;;23.02;2.63;;;;;;;;;;5027789;28;20049;-59
2023/03/13 09:22:28;;;;;;;15.47;1.90;;;;;;;;;;5056572;28;20044;-59
2023/03/13 09:25:01;;;;;;;16.13;2.42;;;;;;;;;;4836303;28;10001026;-60
2023/03/13 09:27:34;;;;;;;20.87;2.90;;;;;;;;;;5032193;28;20247;-60
2023/03/13 09:30:02;;;;;;;19.45;4.20;;;;;;;;;;4998446;28;20052;-59
2023/03/13 09:32:29;;;;;;;27.38;4.03;;;;;;;;;;5028285;28;20040;-59
2023/03/13 09:34:58;;;;;;;26.73;3.67;;;;;;;;;;4984724;28;20525;-58
2023/03/13 09:37:26;;;;;;;21.73;2.65;;;;;;;;;;5026292;28;20179;-60
2023/03/13 09:39:56;;;;;;;22.00;3.63;;;;;;;;;;5021312;28;20044;-59
2023/03/13 09:42:28;;;;;;;18.60;2.95;;;;;;;;;;5022748;28;20044;-59
2023/03/13 09:44:59;;;;;;;24.25;3.25;;;;;;;;;;5013592;28;20809;-59
2023/03/13 09:47:32;;;;;;;15.98;2.67;;;;;;;;;;4971773;28;20133;-59
2023/03/13 09:50:03;;;;;;;23.70;3.72;;;;;;;;;;5035376;28;20058;-59
2023/03/13 09:52:40;;;;;;;23.53;3.33;;;;;;;;;;5025294;28;20045;-59
2023/03/13 09:55:15;;;;;;;12.13;1.98;;;;;;;;;;5019873;28;20462;-60
2023/03/13 09:57:46;;;;;;;22.88;3.03;;;;;;;;;;5022902;28;20040;-59
2023/03/13 10:00:18;;;;;;;15.38;2.08;;;;;;;;;;5003195;28;20049;-59
2023/03/13 10:02:47;;;;;;;16.02;2.47;;;;;;;;;;5033109;28;20735;-60
2023/03/13 10:05:17;;;;;;;23.90;2.80;;;;;;;;;;5025022;28;20051;-60
2023/03/13 10:07:45;;;;;;;15.15;2.88;;;;;;;;;;5007126;28;20044;-59
2023/03/13 10:10:16;;;;;;;17.67;1.92;;;;;;;;;;5037985;28;20044;-60
2023/03/13 10:12:47;;;;;;;19.85;2.80;;;;;;;;;;5034292;28;20708;-59
2023/03/13 10:15:33;;;;;;;24.77;2.90;;;;;;;;;;5031133;28;20066;-59
2023/03/13 10:18:06;;;;;;;15.23;2.20;;;;;;;;;;5019457;28;20122;-60
2023/03/13 10:20:35;;;;;;;16.77;3.63;;;;;;;;;;5010557;28;20494;-59
2023/03/13 10:23:05;;;;;;;15.95;2.67;;;;;;;;;;5002009;28;20048;-60
2023/03/13 10:25:35;;;;;;;18.10;3.28;;;;;;;;;;5040071;28;20056;-59
2023/03/13 10:28:04;;;;;;;15.15;2.28;;;;;;;;;;5016975;28;20707;-59
2023/03/13 10:30:34;;;;;;;11.10;1.67;;;;;;;;;;5025568;28;20495;-59
2023/03/13 10:33:17;;;;;;;16.20;2.83;;;;;;;;;;5031956;28;20037;-59
2023/03/13 10:35:45;;;;;;;23.65;2.95;;;;;;;;;;5023293;28;20481;-60
2023/03/13 10:38:14;;;;;;;17.17;2.42;;;;;;;;;;5012334;28;20037;-59
2023/03/13 10:40:41;;;;;;;21.83;3.58;;;;;;;;;;5032131;28;20029;-60
2023/03/13 10:43:18;;;;;;;23.23;2.83;;;;;;;;;;5037240;28;20492;-59
2023/03/13 10:45:48;;;;;;;16.02;2.30;;;;;;;;;;5026905;28;20090;-60
2023/03/13 10:48:19;;;;;;;15.18;2.30;;;;;;;;;;5008321;28;20106;-60
2023/03/13 10:50:47;;;;;;;15.80;2.17;;;;;;;;;;5032711;28;20120;-60
2023/03/13 10:53:20;;;;;;;17.50;3.38;;;;;;;;;;5018500;28;20684;-59
2023/03/13 10:55:48;;;;;;;17.60;3.20;;;;;;;;;;4999093;28;20029;-59
2023/03/13 10:58:22;;;;;;;18.63;2.72;;;;;;;;;;5016259;28;20134;-60
2023/03/13 11:00:50;;;;;;;20.08;4.10;;;;;;;;;;5032861;28;20102;-59
2023/03/13 11:03:20;;;;;;;17.17;3.17;;;;;;;;;;5027545;28;20048;-60
2023/03/13 11:05:54;;;;;;;23.92;2.50;;;;;;;;;;5036660;28;20080;-59
2023/03/13 11:08:24;;;;;;;13.83;2.40;;;;;;;;;;5006709;28;21250;-60
2023/03/13 11:10:56;;;;;;;23.67;3.05;;;;;;;;;;5029628;28;20060;-59
2023/03/13 11:13:30;;;;;;;16.38;2.70;;;;;;;;;;5032611;28;20068;-60
2023/03/13 11:16:09;;;;;;;17.10;2.55;;;;;;;;;;5041386;28;20044;-59
2023/03/13 11:18:40;;;;;;;12.02;2.63;;;;;;;;;;5048485;28;20036;-59
2023/03/13 11:21:08;;;;;;;15.23;2.87;;;;;;;;;;5052045;28;20155;-60
2023/03/13 11:23:47;;;;;;;14.10;2.95;;;;;;;;;;5062369;28;20401;-59
2023/03/13 11:26:25;;;;;;;16.00;2.86;;;;;;;;;;4895716;28;10001007;-60
2023/03/13 11:28:57;;;;;;;22.83;3.03;;;;;;;;;;5058326;28;20239;-59
2023/03/13 11:31:28;;;;;;;16.30;2.63;;;;;;;;;;5055791;28;20609;-60
2023/03/13 11:33:58;;;;;;;17.80;2.05;;;;;;;;;;5052177;28;20047;-60
2023/03/13 11:36:30;;;;;;;14.73;2.72;;;;;;;;;;5044766;28;20109;-59
2023/03/13 11:39:02;;;;;;;14.55;2.58;;;;;;;;;;5029737;28;20577;-59
2023/03/13 11:41:39;;;;;;;14.65;3.58;;;;;;;;;;5048111;28;20070;-59
2023/03/13 11:44:28;;;;;;;12.40;1.90;;;;;;;;;;5063063;28;20036;-60
2023/03/13 11:47:23;;;;;;;16.80;2.15;;;;;;;;;;5042648;28;20102;-60
2023/03/13 11:50:00;;;;;;;17.40;3.83;;;;;;;;;;5038822;28;20709;-59
2023/03/13 11:52:34;;;;;;;18.85;2.10;;;;;;;;;;5050095;28;20444;-59
2023/03/13 11:55:16;;;;;;;17.92;2.08;;;;;;;;;;5046617;28;20056;-60
2023/03/13 11:57:48;;;;;;;13.77;2.47;;;;;;;;;;5043977;28;20044;-60
2023/03/13 12:00:20;;;;;;;14.38;2.75;;;;;;;;;;5033486;28;20054;-59
2023/03/13 12:02:51;;;;;;;22.83;3.05;;;;;;;;;;5048980;28;20505;-59
2023/03/13 12:05:20;;;;;;;19.55;2.20;;;;;;;;;;5047779;28;20683;-59
2023/03/13 12:07:50;;;;;;;19.88;2.78;;;;;;;;;;5036366;28;20040;-60
2023/03/13 12:10:20;;;;;;;19.57;2.40;;;;;;;;;;5049203;28;20044;-59
2023/03/13 12:12:51;;;;;;;20.98;2.22;;;;;;;;;;5046196;28;20074;-60
2023/03/13 12:15:22;;;;;;;14.82;1.90;;;;;;;;;;5046062;28;20043;-58
2023/03/13 12:17:56;;;;;;;17.92;2.67;;;;;;;;;;5051991;28;20127;-60
2023/03/13 12:20:25;;;;;;;21.60;3.38;;;;;;;;;;5049508;28;20052;-60
2023/03/13 12:22:56;;;;;;;15.87;2.30;;;;;;;;;;4680039;28;10000082;-60
2023/03/13 12:25:27;;;;;;;16.58;3.20;;;;;;;;;;5054872;28;20131;-60
2023/03/13 12:27:57;;;;;;;20.42;3.22;;;;;;;;;;5037376;28;20044;-60
2023/03/13 12:30:31;;;;;;;14.83;2.03;;;;;;;;;;5046876;28;20032;-60
2023/03/13 12:33:10;;;;;;;24.90;2.60;;;;;;;;;;4685468;28;9999975;-60
2023/03/13 12:35:42;;;;;;;13.35;1.95;;;;;;;;;;5047744;28;20040;-59
2023/03/13 12:38:14;;;;;;;13.43;2.47;;;;;;;;;;5028909;28;20741;-59
2023/03/13 12:40:47;;;;;;;20.10;2.35;;;;;;;;;;5053840;28;20086;-59
2023/03/13 12:43:18;;;;;;;23.08;3.95;;;;;;;;;;5012439;28;20036;-59
2023/03/13 12:45:51;;;;;;;15.57;2.50;;;;;;;;;;5023416;28;20375;-60
2023/03/13 12:48:43;;;;;;;18.02;3.03;;;;;;;;;;5047832;28;20078;-58
2023/03/13 12:51:20;;;;;;;13.83;2.03;;;;;;;;;;5018607;28;20044;-59
2023/03/13 12:54:03;;;;;;;20.60;3.20;;;;;;;;;;5048611;28;20147;-59
2023/03/13 12:56:39;;;;;;;17.15;2.35;;;;;;;;;;5038073;28;20055;-59
2023/03/13 12:59:09;;;;;;;15.98;2.40;;;;;;;;;;5040674;28;20041;-60
2023/03/13 13:01:39;;;;;;;16.73;2.75;;;;;;;;;;5050286;28;20040;-59
2023/03/13 13:04:11;;;;;;;19.20;2.60;;;;;;;;;;5052098;28;20075;-60
2023/03/13 13:07:01;;;;;;;18.40;2.42;;;;;;;;;;5042238;28;20531;-58
2023/03/13 13:09:31;;;;;;;14.23;2.20;;;;;;;;;;5016585;28;20052;-59
2023/03/13 13:12:00;;;;;;;19.10;2.42;;;;;;;;;;5047443;28;20075;-58
2023/03/13 13:14:56;;;;;;;20.30;2.25;;;;;;;;;;5043943;28;20753;-59
2023/03/13 13:17:33;;;;;;;15.87;1.83;;;;;;;;;;5044704;28;20093;-59
2023/03/13 13:20:15;;;;;;;25.90;2.60;;;;;;;;;;5039325;28;20037;-60
2023/03/13 13:22:47;;;;;;;19.02;2.00;;;;;;;;;;5049980;28;20044;-59
2023/03/13 13:25:28;;;;;;;14.57;2.95;;;;;;;;;;5032204;28;20061;-59
2023/03/13 13:27:56;;;;;;;21.58;3.10;;;;;;;;;;5037709;28;20074;-59
2023/03/13 13:30:29;;;;;;;12.70;2.00;;;;;;;;;;5002859;28;20577;-59
2023/03/13 13:33:27;;;;;;;13.32;1.95;;;;;;;;;;5045127;28;20036;-58
2023/03/13 13:36:09;;;;;;;17.65;2.40;;;;;;;;;;5046848;28;20082;-58
2023/03/13 13:38:39;;;;;;;16.13;2.40;;;;;;;;;;5042787;28;20044;-59
2023/03/13 13:41:26;;;;;;;16.13;2.50;;;;;;;;;;5038840;28;20048;-60
2023/03/13 13:44:13;;;;;;;18.67;2.03;;;;;;;;;;5025133;28;21203;-58
2023/03/13 13:46:45;;;;;;;17.13;2.47;;;;;;;;;;5048398;28;20119;-59
2023/03/13 13:49:16;;;;;;;19.85;3.88;;;;;;;;;;5052342;28;20044;-58
2023/03/13 13:52:09;;;;;;;17.10;2.67;;;;;;;;;;5038973;28;20044;-58
2023/03/13 13:54:56;;;;;;;19.45;2.47;;;;;;;;;;5031063;28;20119;-60
2023/03/13 13:57:27;;;;;;;13.47;2.27;;;;;;;;;;5024794;28;20114;-58
2023/03/13 13:59:59;;;;;;;13.20;2.17;;;;;;;;;;5025283;28;20106;-58
2023/03/13 14:02:30;;;;;;;13.88;1.73;;;;;;;;;;5016303;28;20041;-58
2023/03/13 14:05:18;;;;;;;13.05;1.75;;;;;;;;;;5005912;28;20384;-59
2023/03/13 14:07:51;;;;;;;12.55;1.48;;;;;;;;;;5025974;28;20390;-58
2023/03/13 14:10:40;;;;;;;9.20;1.40;;;;;;;;;;5024571;28;20593;-58
2023/03/13 14:13:13;;;;;;;15.35;2.25;;;;;;;;;;4999384;28;20124;-61
2023/03/13 14:15:42;;;;;;;16.85;2.47;;;;;;;;;;5021885;28;20127;-60
2023/03/13 14:18:12;;;;;;;13.50;1.80;;;;;;;;;;4961399;28;20542;-61
2023/03/13 14:20:40;;;;;;;15.90;2.67;;;;;;;;;;5007965;28;20053;-61
2023/03/13 14:23:09;;;;;;;13.80;2.10;;;;;;;;;;4978390;28;20327;-61
2023/03/13 14:25:41;;;;;;;13.60;1.67;;;;;;;;;;4970819;28;20833;-61
2023/03/13 14:28:17;;;;;;;16.58;2.13;;;;;;;;;;4976247;28;20044;-60
2023/03/13 14:30:45;;;;;;;16.85;3.28;;;;;;;;;;5007475;28;20057;-60
2023/03/13 14:33:13;;;;;;;17.40;2.07;;;;;;;;;;4658659;28;9999823;-61
2023/03/13 14:35:41;;;;;;;10.05;1.38;;;;;;;;;;4977792;28;20065;-60
2023/03/13 14:38:20;;;;;;;14.13;2.58;;;;;;;;;;5009137;28;20536;-61
2023/03/13 14:40:49;;;;;;;17.77;2.30;;;;;;;;;;5009793;28;20969;-60
2023/03/13 14:43:24;;;;;;;15.00;3.23;;;;;;;;;;5008232;28;20622;-61
2023/03/13 14:45:51;;;;;;;16.52;2.38;;;;;;;;;;4991011;28;20144;-60
2023/03/13 14:48:21;;;;;;;21.88;2.78;;;;;;;;;;4988360;28;20763;-60
2023/03/13 14:50:49;;;;;;;20.23;3.92;;;;;;;;;;5012438;28;20068;-60